Time;durP1;ratioP1;P1;durP2;ratioP2;P2;SDS_P1;SDS_P2;PMS_P1;PMS_P2;Temp;Humidity;BMP_temperature;BMP_pressure;BME280_temperature;BME280_humidity;BME280_pressure;Samples;Min_cycle;Max_cycle;Signal;HPM_P1;HPM_P2
2022/08/31 00:05:55;;;;;;;2.25;1.67;;;26.50;96.70;;;;;;5026870;28;20577;-75
2022/08/31 00:08:24;;;;;;;4.18;2.35;;;26.40;96.70;;;;;;5040739;28;20589;-73
2022/08/31 00:10:54;;;;;;;3.88;1.90;;;26.40;96.70;;;;;;5034612;28;20049;-74
2022/08/31 00:13:23;;;;;;;2.63;2.15;;;26.40;96.70;;;;;;5019583;28;20513;-74
2022/08/31 00:15:54;;;;;;;3.70;2.00;;;26.40;96.70;;;;;;5052322;28;20036;-74
2022/08/31 00:18:22;;;;;;;4.03;1.73;;;26.40;96.70;;;;;;5039100;28;20049;-74
2022/08/31 00:20:50;;;;;;;3.08;1.83;;;26.40;96.70;;;;;;5042202;28;20063;-74
2022/08/31 00:23:19;;;;;;;1.83;1.60;;;26.30;96.70;;;;;;5025815;28;20056;-74
2022/08/31 00:25:48;;;;;;;5.03;1.70;;;26.30;96.70;;;;;;5034609;28;20128;-74
2022/08/31 00:28:17;;;;;;;5.32;2.20;;;26.30;96.70;;;;;;5034297;28;20655;-74
2022/08/31 00:30:46;;;;;;;4.78;1.80;;;26.30;96.70;;;;;;5051458;28;20516;-74
2022/08/31 00:33:16;;;;;;;4.10;2.55;;;26.30;96.70;;;;;;5057074;28;20516;-75
2022/08/31 00:35:44;;;;;;;2.75;1.95;;;26.20;96.70;;;;;;5048437;28;20048;-74
2022/08/31 00:38:13;;;;;;;4.20;1.95;;;26.00;96.70;;;;;;5038542;28;20055;-75
2022/08/31 00:40:45;;;;;;;3.13;2.20;;;26.00;96.70;;;;;;5060299;28;20501;-75
2022/08/31 00:43:36;;;;;;;3.47;2.47;;;26.10;96.70;;;;;;5024224;28;20068;-75
2022/08/31 00:46:05;;;;;;;2.03;1.70;;;26.00;96.70;;;;;;5043401;28;20132;-75
2022/08/31 00:48:37;;;;;;;4.05;2.35;;;26.00;96.70;;;;;;5033027;28;20143;-75
2022/08/31 00:51:05;;;;;;;2.65;1.80;;;26.00;96.70;;;;;;5031159;28;20049;-74
2022/08/31 00:53:34;;;;;;;4.18;1.90;;;26.00;96.70;;;;;;5054099;28;20095;-75
2022/08/31 00:56:03;;;;;;;2.28;1.60;;;26.00;96.70;;;;;;5058331;28;20029;-75
2022/08/31 00:58:31;;;;;;;2.42;1.55;;;26.10;96.70;;;;;;5038470;28;20137;-74
2022/08/31 01:00:59;;;;;;;2.45;1.63;;;26.00;96.70;;;;;;5037722;28;20037;-74
2022/08/31 01:03:28;;;;;;;2.85;1.73;;;26.00;96.70;;;;;;5038589;28;20445;-74
2022/08/31 01:05:57;;;;;;;2.65;1.67;;;26.10;96.70;;;;;;5040823;28;20838;-74
2022/08/31 01:08:26;;;;;;;3.25;1.80;;;26.10;96.70;;;;;;5059275;28;20072;-75
2022/08/31 01:10:58;;;;;;;3.00;1.88;;;26.10;96.70;;;;;;5041208;28;20056;-74
2022/08/31 01:13:27;;;;;;;4.10;1.90;;;26.10;96.70;;;;;;5019495;28;20056;-74
2022/08/31 01:16:00;;;;;;;2.33;2.10;;;26.00;96.70;;;;;;5036126;28;20043;-74
2022/08/31 01:18:30;;;;;;;2.50;2.13;;;26.00;96.70;;;;;;5042876;28;20129;-74
2022/08/31 01:21:10;;;;;;;3.15;1.90;;;26.00;96.70;;;;;;5045060;28;20068;-74
2022/08/31 01:23:41;;;;;;;2.33;1.83;;;26.00;96.70;;;;;;5037272;28;20060;-74
2022/08/31 01:26:12;;;;;;;2.47;1.77;;;26.00;96.70;;;;;;5042867;28;20090;-74
2022/08/31 01:28:40;;;;;;;1.85;1.52;;;25.90;96.70;;;;;;5042434;28;20402;-74
2022/08/31 01:31:19;;;;;;;3.28;1.75;;;25.90;96.70;;;;;;5042778;28;20064;-74
2022/08/31 01:33:47;;;;;;;2.47;1.85;;;25.90;96.70;;;;;;5032636;28;20532;-74
2022/08/31 01:36:16;;;;;;;2.67;1.80;;;25.80;96.70;;;;;;5045704;28;20128;-74
2022/08/31 01:38:46;;;;;;;3.38;1.85;;;25.80;96.70;;;;;;5054151;28;20068;-75
2022/08/31 01:41:21;;;;;;;3.47;2.33;;;25.80;96.70;;;;;;5065643;28;20045;-74
2022/08/31 01:43:49;;;;;;;2.97;2.20;;;25.70;96.70;;;;;;5054147;28;20045;-74
2022/08/31 01:46:18;;;;;;;2.97;2.20;;;25.60;96.70;;;;;;5047627;28;20127;-74
2022/08/31 01:48:47;;;;;;;2.85;1.98;;;25.60;96.70;;;;;;5042348;28;21547;-74
2022/08/31 01:51:18;;;;;;;3.72;1.80;;;25.60;96.70;;;;;;5041513;28;20048;-75
2022/08/31 01:53:49;;;;;;;3.47;2.13;;;25.70;96.70;;;;;;5055572;28;20040;-74
2022/08/31 01:56:21;;;;;;;3.25;2.15;;;25.70;96.70;;;;;;5056085;28;20159;-74
2022/08/31 01:58:50;;;;;;;3.10;2.00;;;25.60;96.70;;;;;;5039962;28;20068;-75
2022/08/31 02:01:47;;;;;;;4.18;1.92;;;25.60;96.70;;;;;;5039278;28;20184;-74
2022/08/31 02:04:17;;;;;;;2.97;1.90;;;25.60;96.70;;;;;;5047937;28;20044;-74
2022/08/31 02:06:48;;;;;;;3.30;2.05;;;25.60;96.70;;;;;;5040549;28;21361;-74
2022/08/31 02:09:21;;;;;;;4.30;2.00;;;25.60;96.70;;;;;;5026641;28;20056;-73
2022/08/31 02:11:50;;;;;;;3.22;2.67;;;25.60;96.70;;;;;;5034617;28;20051;-74
2022/08/31 02:14:19;;;;;;;2.30;2.08;;;25.70;96.70;;;;;;5040093;28;20549;-73
2022/08/31 02:16:48;;;;;;;2.83;2.00;;;25.70;96.70;;;;;;5030253;28;20091;-74
2022/08/31 02:19:16;;;;;;;2.95;2.28;;;25.70;96.70;;;;;;5045032;28;20235;-73
2022/08/31 02:21:44;;;;;;;3.88;2.47;;;25.60;96.70;;;;;;5029599;28;20052;-74
2022/08/31 02:24:12;;;;;;;3.28;2.50;;;25.70;96.70;;;;;;5046072;28;20047;-74
2022/08/31 02:26:41;;;;;;;3.88;2.50;;;25.70;96.70;;;;;;5034404;28;20048;-74
2022/08/31 02:29:10;;;;;;;3.95;2.50;;;25.80;96.70;;;;;;5037161;28;20049;-74
2022/08/31 02:31:38;;;;;;;4.40;2.78;;;25.80;96.70;;;;;;5040011;28;20139;-74
2022/08/31 02:34:06;;;;;;;4.22;2.55;;;25.80;96.70;;;;;;5029753;28;20514;-74
2022/08/31 02:36:34;;;;;;;2.42;2.22;;;25.80;96.70;;;;;;5041877;28;20138;-74
2022/08/31 02:39:05;;;;;;;2.55;2.35;;;25.80;96.70;;;;;;5051652;28;20467;-74
2022/08/31 02:41:33;;;;;;;3.30;2.38;;;25.70;96.70;;;;;;5035590;28;20044;-74
2022/08/31 02:44:04;;;;;;;3.67;2.13;;;25.60;96.70;;;;;;5045736;28;20082;-74
2022/08/31 02:46:33;;;;;;;3.60;2.30;;;25.50;96.70;;;;;;5045996;28;20128;-74
2022/08/31 02:49:20;;;;;;;2.65;2.42;;;25.50;96.70;;;;;;5042857;28;20040;-74
2022/08/31 02:51:49;;;;;;;4.55;2.25;;;25.30;96.70;;;;;;5038643;28;20422;-73
2022/08/31 02:54:17;;;;;;;3.15;2.80;;;25.20;96.70;;;;;;5059237;28;20041;-74
2022/08/31 02:56:46;;;;;;;3.97;2.88;;;25.20;96.70;;;;;;5039502;28;20576;-75
2022/08/31 02:59:19;;;;;;;2.80;2.50;;;25.20;96.70;;;;;;5033597;28;20048;-74
2022/08/31 03:01:47;;;;;;;3.40;2.30;;;25.20;96.70;;;;;;5058506;28;20479;-75
2022/08/31 03:04:16;;;;;;;2.72;2.35;;;25.20;96.70;;;;;;5043169;28;20049;-74
2022/08/31 03:06:46;;;;;;;3.85;2.50;;;25.20;96.70;;;;;;5028915;28;20056;-75
2022/08/31 03:09:14;;;;;;;2.95;2.53;;;25.20;96.70;;;;;;5044476;28;20053;-74
2022/08/31 03:11:43;;;;;;;3.55;2.88;;;25.30;96.70;;;;;;5042751;28;20139;-75
2022/08/31 03:14:11;;;;;;;3.40;3.10;;;25.30;96.70;;;;;;5034290;28;20136;-74
2022/08/31 03:16:41;;;;;;;4.80;3.13;;;25.30;96.70;;;;;;5046355;28;20605;-74
2022/08/31 03:19:09;;;;;;;3.60;3.05;;;25.30;96.70;;;;;;5040982;28;20501;-74
2022/08/31 03:21:38;;;;;;;5.35;3.30;;;25.30;96.70;;;;;;5038943;28;20045;-75
2022/08/31 03:24:06;;;;;;;6.82;4.28;;;25.40;96.70;;;;;;5056144;28;20055;-75
2022/08/31 03:26:34;;;;;;;5.78;4.15;;;25.30;96.70;;;;;;5030388;28;20049;-75
2022/08/31 03:29:02;;;;;;;6.97;4.82;;;25.40;96.70;;;;;;5053026;28;20045;-74
2022/08/31 03:31:51;;;;;;;;;;;25.40;96.70;;;;;;5056478;28;20063;-78
2022/08/31 03:34:21;;;;;;;19.65;11.57;;;25.30;96.70;;;;;;5035917;28;19928;-78
2022/08/31 03:36:49;;;;;;;42.65;26.13;;;25.30;96.70;;;;;;5055286;28;20404;-78
2022/08/31 03:39:18;;;;;;;38.28;24.00;;;25.20;96.70;;;;;;5044050;28;20060;-77
2022/08/31 03:41:47;;;;;;;26.52;15.80;;;25.20;96.70;;;;;;5025871;28;20052;-77
2022/08/31 03:44:22;;;;;;;21.05;13.27;;;25.30;96.70;;;;;;5018742;28;20041;-77
2022/08/31 03:46:54;;;;;;;15.75;10.48;;;25.30;96.70;;;;;;5052026;28;20140;-78
2022/08/31 03:49:23;;;;;;;13.13;8.43;;;25.20;96.70;;;;;;5026731;28;20097;-77
2022/08/31 03:52:07;;;;;;;10.85;6.65;;;25.10;96.70;;;;;;5040013;28;20045;-78
2022/08/31 03:54:43;;;;;;;8.85;6.25;;;25.10;96.70;;;;;;5038012;28;20102;-78
2022/08/31 03:57:12;;;;;;;10.48;7.15;;;25.00;96.70;;;;;;5043588;28;20084;-78
2022/08/31 03:59:40;;;;;;;12.18;7.32;;;25.00;96.70;;;;;;5041291;28;20137;-77
2022/08/31 04:02:38;;;;;;;13.00;9.30;;;25.00;96.70;;;;;;5037275;28;20511;-79
2022/08/31 04:05:25;;;;;;;17.80;11.55;;;24.90;96.70;;;;;;5043195;28;20406;-78
2022/08/31 04:07:59;;;;;;;16.98;10.75;;;24.90;96.70;;;;;;5050597;28;20045;-78
2022/08/31 04:10:47;;;;;;;14.57;10.77;;;24.80;96.70;;;;;;5047762;28;20132;-77
2022/08/31 04:13:37;;;;;;;13.30;9.15;;;24.80;96.70;;;;;;4996375;28;20131;-77
2022/08/31 04:16:27;;;;;;;10.25;6.85;;;24.90;96.70;;;;;;5046186;28;20056;-78
2022/08/31 04:19:18;;;;;;;9.73;6.68;;;24.90;96.70;;;;;;5042892;28;20045;-77
2022/08/31 04:21:57;;;;;;;8.60;5.47;;;24.90;96.70;;;;;;5024314;28;20048;-78
2022/08/31 04:24:26;;;;;;;6.63;4.50;;;24.90;96.70;;;;;;5029520;28;20048;-79
2022/08/31 04:26:54;;;;;;;6.57;4.72;;;24.90;96.70;;;;;;5036202;28;20040;-78
2022/08/31 04:29:23;;;;;;;7.78;5.18;;;24.90;96.70;;;;;;5071790;28;20052;-77
2022/08/31 04:31:51;;;;;;;6.72;4.75;;;24.90;96.70;;;;;;5032124;28;20194;-78
2022/08/31 04:34:21;;;;;;;6.47;4.75;;;25.00;96.70;;;;;;5020555;28;20098;-79
2022/08/31 04:36:49;;;;;;;6.63;5.25;;;24.90;96.70;;;;;;5036303;28;20045;-78
2022/08/31 04:39:17;;;;;;;5.25;4.18;;;24.80;96.70;;;;;;5024748;28;20513;-78
2022/08/31 04:41:46;;;;;;;4.57;3.97;;;24.80;96.70;;;;;;5026223;28;20045;-78
2022/08/31 04:44:14;;;;;;;4.10;3.60;;;24.80;96.70;;;;;;5036936;28;20044;-78
2022/08/31 04:46:50;;;;;;;7.18;5.32;;;24.90;96.70;;;;;;5035589;28;20040;-78
2022/08/31 04:49:20;;;;;;;6.93;4.35;;;24.80;96.70;;;;;;5037084;28;20401;-77
2022/08/31 04:51:48;;;;;;;8.15;4.53;;;24.70;96.70;;;;;;5072278;28;20095;-78
2022/08/31 04:54:16;;;;;;;5.00;3.80;;;24.70;96.70;;;;;;5027155;28;20037;-78
2022/08/31 04:56:45;;;;;;;8.75;5.28;;;24.90;96.70;;;;;;5043153;28;20131;-78
2022/08/31 04:59:24;;;;;;;7.63;5.22;;;24.90;96.70;;;;;;5040486;28;20060;-78
2022/08/31 05:02:19;;;;;;;7.28;5.38;;;24.60;96.70;;;;;;5039573;28;20056;-77
2022/08/31 05:04:54;;;;;;;6.25;5.28;;;24.40;96.70;;;;;;5030133;28;20106;-78
2022/08/31 05:07:24;;;;;;;7.78;4.78;;;24.50;96.70;;;;;;5016674;28;20081;-79
2022/08/31 05:09:54;;;;;;;6.50;5.82;;;24.70;96.70;;;;;;5003323;28;20042;-77
2022/08/31 05:12:22;;;;;;;9.90;7.03;;;24.90;96.70;;;;;;5016017;28;20054;-78
2022/08/31 05:14:52;;;;;;;7.93;6.28;;;24.90;96.70;;;;;;5012881;28;20049;-77
2022/08/31 05:17:23;;;;;;;12.32;6.50;;;24.90;96.70;;;;;;5017651;28;20050;-76
2022/08/31 05:19:52;;;;;;;8.65;6.20;;;24.90;96.70;;;;;;5013959;28;20132;-75
2022/08/31 05:22:21;;;;;;;9.40;5.50;;;24.90;96.70;;;;;;5018743;28;20124;-75
2022/08/31 05:24:52;;;;;;;8.13;4.97;;;24.90;96.70;;;;;;5019951;28;20445;-76
2022/08/31 05:27:20;;;;;;;4.65;4.22;;;25.00;96.70;;;;;;5021080;28;20815;-77
2022/08/31 05:29:48;;;;;;;6.00;4.20;;;25.00;96.70;;;;;;5014522;28;20065;-76
2022/08/31 05:32:34;;;;;;;6.35;4.82;;;25.10;96.70;;;;;;5015636;28;20116;-76
2022/08/31 05:35:07;;;;;;;6.57;4.18;;;25.10;96.70;;;;;;5014403;28;20046;-77
2022/08/31 05:37:36;;;;;;;6.35;4.57;;;25.20;96.70;;;;;;5005057;28;20099;-77
2022/08/31 05:40:06;;;;;;;8.63;4.75;;;25.40;96.70;;;;;;5017105;28;20615;-76
2022/08/31 05:42:35;;;;;;;9.20;5.00;;;25.40;96.70;;;;;;5014141;28;20046;-77
2022/08/31 05:45:04;;;;;;;5.68;4.95;;;25.40;96.70;;;;;;5015996;28;20050;-77
2022/08/31 05:47:54;;;;;;;7.50;5.97;;;25.40;96.70;;;;;;4967826;28;20867;-77
2022/08/31 05:50:22;;;;;;;9.60;5.78;;;25.40;96.70;;;;;;4941243;28;20042;-77
2022/08/31 05:52:53;;;;;;;8.90;6.28;;;25.30;96.70;;;;;;4956317;28;20054;-77
2022/08/31 05:55:21;;;;;;;7.47;6.10;;;25.20;96.70;;;;;;4977443;28;20061;-77
2022/08/31 05:57:51;;;;;;;8.25;6.30;;;25.20;96.70;;;;;;4965478;28;20046;-77
2022/08/31 06:00:20;;;;;;;9.15;6.72;;;25.10;96.70;;;;;;4979314;28;21508;-76
2022/08/31 06:02:55;;;;;;;10.75;7.55;;;25.00;96.70;;;;;;4950298;28;20057;-77
2022/08/31 06:05:24;;;;;;;10.48;8.00;;;25.00;96.70;;;;;;4963753;28;20062;-77
2022/08/31 06:07:54;;;;;;;11.98;7.85;;;24.90;96.70;;;;;;5038805;28;20095;-76
2022/08/31 06:10:24;;;;;;;10.02;7.90;;;24.90;96.70;;;;;;5055929;28;20128;-77
2022/08/31 06:12:53;;;;;;;9.68;8.25;;;24.80;96.70;;;;;;5036690;28;20495;-76
2022/08/31 06:15:22;;;;;;;12.00;9.43;;;24.80;96.70;;;;;;5041763;28;20056;-76
2022/08/31 06:17:51;;;;;;;12.30;10.55;;;24.80;96.70;;;;;;5024161;28;20139;-77
2022/08/31 06:20:20;;;;;;;12.93;11.55;;;24.80;96.70;;;;;;5042745;28;20045;-78
2022/08/31 06:22:48;;;;;;;11.82;10.63;;;24.70;96.70;;;;;;5060930;28;20506;-75
2022/08/31 06:25:32;;;;;;;11.18;10.07;;;24.70;96.70;;;;;;5045340;28;20094;-75
2022/08/31 06:28:01;;;;;;;12.77;9.32;;;24.70;96.70;;;;;;5058375;28;20131;-75
2022/08/31 06:30:29;;;;;;;8.77;7.57;;;24.90;96.70;;;;;;5039547;28;20422;-75
2022/08/31 06:32:58;;;;;;;7.43;6.72;;;24.90;96.70;;;;;;5077824;28;20509;-75
2022/08/31 06:35:39;;;;;;;9.98;8.27;;;24.90;96.70;;;;;;5036990;28;20072;-74
2022/08/31 06:38:26;;;;;;;11.20;8.02;;;25.00;96.70;;;;;;5040291;28;20055;-74
2022/08/31 06:41:34;;;;;;;8.93;7.70;;;25.10;96.70;;;;;;5005574;28;20059;-75
2022/08/31 06:44:22;;;;;;;9.98;7.80;;;25.10;96.70;;;;;;5058328;28;20182;-74
2022/08/31 06:47:18;;;;;;;10.15;7.70;;;25.20;96.70;;;;;;5055625;28;20052;-75
2022/08/31 06:49:52;;;;;;;8.40;6.72;;;25.20;96.70;;;;;;5038987;28;20118;-74
2022/08/31 06:52:21;;;;;;;10.65;7.03;;;25.30;96.70;;;;;;5027582;28;20514;-75
2022/08/31 06:55:12;;;;;;;8.02;7.22;;;25.40;96.70;;;;;;5017545;28;20053;-75
2022/08/31 06:58:01;;;;;;;;;;;25.40;96.70;;;;;;5047988;28;20533;-74
2022/08/31 07:00:48;;;;;;;11.27;8.77;;;25.50;96.70;;;;;;5052270;28;20510;-75
2022/08/31 07:03:33;;;;;;;11.23;7.43;;;25.60;96.70;;;;;;5058162;28;20048;-76
2022/08/31 07:06:06;;;;;;;10.38;7.78;;;25.70;96.70;;;;;;5034433;28;20171;-74
2022/08/31 07:08:37;;;;;;;12.05;7.78;;;25.80;96.70;;;;;;5020979;28;20064;-75
2022/08/31 07:11:12;;;;;;;12.02;8.15;;;25.70;96.70;;;;;;4995012;28;20056;-76
2022/08/31 07:13:43;;;;;;;9.60;7.30;;;25.90;96.70;;;;;;5016705;28;20092;-76
2022/08/31 07:16:14;;;;;;;9.18;7.18;;;25.90;96.70;;;;;;4997630;28;20045;-74
2022/08/31 07:18:44;;;;;;;7.90;6.40;;;26.00;96.70;;;;;;5014888;28;20064;-74
2022/08/31 07:21:15;;;;;;;7.63;6.75;;;26.10;96.70;;;;;;5019798;28;20053;-74
2022/08/31 07:23:46;;;;;;;9.48;7.13;;;26.20;96.70;;;;;;5016764;28;20771;-74
2022/08/31 07:26:20;;;;;;;9.88;7.10;;;26.10;96.70;;;;;;5017220;28;20068;-73
2022/08/31 07:28:52;;;;;;;10.00;7.25;;;26.20;96.70;;;;;;5017727;28;20139;-76
2022/08/31 07:31:22;;;;;;;9.52;6.18;;;26.20;96.70;;;;;;5014636;28;20042;-76
2022/08/31 07:33:54;;;;;;;8.73;6.07;;;26.30;96.70;;;;;;5022089;28;20414;-75
2022/08/31 07:36:25;;;;;;;7.30;6.03;;;26.40;96.70;;;;;;5020966;28;20051;-74
2022/08/31 07:44:38;;;;;;;8.02;5.90;;;26.50;96.70;;;;;;5018232;28;20140;-74
2022/08/31 07:47:11;;;;;;;9.20;5.85;;;26.70;96.70;;;;;;5003304;28;20611;-75
2022/08/31 07:49:49;;;;;;;12.20;7.20;;;26.80;96.70;;;;;;5000347;28;20092;-74
2022/08/31 07:52:45;;;;;;;9.10;6.10;;;26.80;96.70;;;;;;5021109;28;20111;-75
2022/08/31 07:55:36;;;;;;;8.23;5.55;;;26.80;96.70;;;;;;5015787;28;20045;-76
2022/08/31 07:58:12;;;;;;;7.35;5.85;;;26.90;96.70;;;;;;5010336;28;20049;-75
2022/08/31 08:00:46;;;;;;;11.63;5.80;;;27.00;96.70;;;;;;5021917;28;20045;-75
2022/08/31 08:03:15;;;;;;;19.85;5.82;;;27.10;96.70;;;;;;5022347;28;20071;-75
2022/08/31 08:06:14;;;;;;;8.40;4.85;;;27.30;96.70;;;;;;5024169;28;20056;-75
2022/08/31 08:09:21;;;;;;;11.77;5.28;;;27.30;96.70;;;;;;4981642;28;20042;-75
2022/08/31 08:12:11;;;;;;;8.52;4.50;;;27.40;96.70;;;;;;4967572;28;20144;-75
2022/08/31 08:15:01;;;;;;;7.97;4.80;;;27.30;96.70;;;;;;5029803;28;20137;-74
2022/08/31 08:17:46;;;;;;;9.50;4.95;;;27.30;96.70;;;;;;5035726;28;20056;-75
2022/08/31 08:20:19;;;;;;;9.02;4.97;;;27.20;96.70;;;;;;5042786;28;20063;-74
2022/08/31 08:23:10;;;;;;;58.33;10.50;;;27.10;96.70;;;;;;5036826;28;20059;-75
2022/08/31 08:26:07;;;;;;;21.98;5.88;;;27.10;96.70;;;;;;5019869;28;20090;-76
2022/08/31 08:29:06;;;;;;;34.45;8.77;;;27.00;96.70;;;;;;5040309;28;20125;-74
2022/08/31 08:31:41;;;;;;;30.42;7.30;;;27.10;96.70;;;;;;5035355;28;20824;-75
2022/08/31 08:34:12;;;;;;;15.55;5.93;;;27.10;96.70;;;;;;5041131;28;20048;-75
2022/08/31 08:36:40;;;;;;;6.18;4.82;;;27.00;96.70;;;;;;5032406;28;20052;-75
2022/08/31 08:39:10;;;;;;;10.07;5.28;;;27.00;96.70;;;;;;5043394;28;20048;-74
2022/08/31 08:41:56;;;;;;;7.82;5.15;;;27.00;96.70;;;;;;5034514;28;20056;-74
2022/08/31 08:44:27;;;;;;;8.95;4.68;;;26.90;96.70;;;;;;5060390;28;20062;-75
2022/08/31 08:46:58;;;;;;;7.43;5.28;;;27.00;96.70;;;;;;5034354;28;20061;-74
2022/08/31 08:49:40;;;;;;;8.82;4.55;;;27.00;96.70;;;;;;5028766;28;20364;-75
2022/08/31 08:52:15;;;;;;;6.50;4.70;;;27.00;96.70;;;;;;5033515;28;20140;-75
2022/08/31 08:54:47;;;;;;;7.47;4.35;;;27.10;96.70;;;;;;5037446;28;20049;-74
2022/08/31 08:57:21;;;;;;;7.55;4.10;;;27.30;96.70;;;;;;5055631;28;20122;-75
2022/08/31 08:59:52;;;;;;;8.82;4.47;;;27.40;96.70;;;;;;5047815;28;20725;-74
2022/08/31 09:02:27;;;;;;;6.13;4.10;;;27.40;96.70;;;;;;5043048;28;20052;-75
2022/08/31 09:05:23;;;;;;;4.80;4.00;;;27.40;96.70;;;;;;5039580;28;20622;-75
2022/08/31 09:08:38;;;;;;;7.25;3.53;;;27.40;96.70;;;;;;5038509;28;20072;-75
2022/08/31 09:11:16;;;;;;;3.88;3.45;;;27.50;96.70;;;;;;5036133;28;20041;-75
2022/08/31 09:13:54;;;;;;;5.53;3.75;;;27.50;96.70;;;;;;5046458;28;20033;-74
2022/08/31 09:16:37;;;;;;;5.15;3.47;;;27.60;96.70;;;;;;5053665;28;20053;-75
2022/08/31 09:19:11;;;;;;;6.10;3.10;;;27.60;96.70;;;;;;5037306;28;20051;-75
2022/08/31 09:21:46;;;;;;;3.95;2.85;;;27.70;96.70;;;;;;5037119;28;20049;-75
2022/08/31 09:24:19;;;;;;;3.05;2.63;;;27.70;96.70;;;;;;5033982;28;20053;-75
2022/08/31 09:27:19;;;;;;;5.03;2.63;;;27.80;96.70;;;;;;5038695;28;20063;-75
2022/08/31 09:29:55;;;;;;;4.93;2.63;;;27.90;96.70;;;;;;5020520;28;20057;-75
2022/08/31 09:32:25;;;;;;;3.57;2.53;;;27.90;96.70;;;;;;5021885;28;20059;-75
2022/08/31 09:35:00;;;;;;;4.50;2.75;;;27.90;96.70;;;;;;5054093;28;20079;-75
2022/08/31 09:37:32;;;;;;;6.72;3.20;;;28.00;96.70;;;;;;5038994;28;20053;-75
2022/08/31 09:40:14;;;;;;;5.22;3.22;;;28.00;96.70;;;;;;5056261;28;20098;-75
2022/08/31 09:43:03;;;;;;;4.78;2.58;;;28.10;96.70;;;;;;5049607;28;20118;-74
2022/08/31 09:45:35;;;;;;;5.80;2.83;;;28.10;96.70;;;;;;5058301;28;20097;-74
2022/08/31 09:48:09;;;;;;;3.67;2.30;;;28.30;96.70;;;;;;5055898;28;20044;-74
2022/08/31 09:50:43;;;;;;;4.80;2.45;;;28.40;96.70;;;;;;5039884;28;20588;-75
2022/08/31 09:56:14;;;;;;;4.43;2.70;;;28.50;96.70;;;;;;5040504;28;20049;-75
2022/08/31 09:58:46;;;;;;;5.65;2.58;;;28.60;96.70;;;;;;5054261;28;20556;-74
2022/08/31 10:01:19;;;;;;;5.50;2.33;;;28.80;96.70;;;;;;5058108;28;20529;-75
2022/08/31 10:03:48;;;;;;;3.80;2.42;;;29.10;96.70;;;;;;5038427;28;20048;-74
2022/08/31 10:06:33;;;;;;;3.38;2.08;;;29.30;96.70;;;;;;5027461;28;20054;-75
2022/08/31 10:09:09;;;;;;;5.15;2.22;;;29.40;96.70;;;;;;5016725;28;20048;-74
2022/08/31 10:11:40;;;;;;;3.83;1.90;;;29.20;96.70;;;;;;5025119;28;20491;-74
2022/08/31 10:14:17;;;;;;;3.75;2.40;;;29.10;96.70;;;;;;5022889;28;20049;-74
2022/08/31 10:16:51;;;;;;;2.35;1.60;;;29.10;96.70;;;;;;5015540;28;20561;-75
2022/08/31 10:19:31;;;;;;;2.28;1.92;;;29.40;96.70;;;;;;5018741;28;20033;-75
2022/08/31 10:22:04;;;;;;;3.17;1.85;;;29.60;96.70;;;;;;5002042;28;20065;-75
2022/08/31 10:24:38;;;;;;;10.35;3.03;;;29.80;96.70;;;;;;5019041;28;20057;-75
2022/08/31 10:27:11;;;;;;;3.95;1.60;;;30.00;96.70;;;;;;5030599;28;20045;-75
2022/08/31 10:29:48;;;;;;;3.72;1.27;;;29.80;96.70;;;;;;5016094;28;20167;-75
2022/08/31 10:32:26;;;;;;;2.38;1.00;;;29.70;96.70;;;;;;5015759;28;20531;-76
2022/08/31 10:35:04;;;;;;;3.88;1.55;;;29.90;96.70;;;;;;5001064;28;20049;-75
2022/08/31 10:37:42;;;;;;;1.45;1.00;;;30.10;96.70;;;;;;5019329;28;20042;-75
2022/08/31 10:40:28;;;;;;;2.30;0.90;;;30.10;96.70;;;;;;5018285;28;20045;-75
2022/08/31 10:43:08;;;;;;;2.78;1.30;;;30.00;96.70;;;;;;5017228;28;20054;-75
2022/08/31 10:45:40;;;;;;;2.28;1.13;;;30.10;96.70;;;;;;5015795;28;20049;-77
2022/08/31 10:48:11;;;;;;;2.72;1.23;;;29.90;96.70;;;;;;5023646;28;20050;-75
2022/08/31 10:50:47;;;;;;;2.03;1.23;;;30.00;96.70;;;;;;5016416;28;20054;-76
2022/08/31 10:53:39;;;;;;;2.70;1.00;;;30.10;96.70;;;;;;5021611;28;20115;-76
2022/08/31 10:56:16;;;;;;;1.20;1.08;;;30.20;96.70;;;;;;5018588;28;20076;-76
2022/08/31 10:59:00;;;;;;;1.88;0.77;;;30.50;96.70;;;;;;5018588;28;20045;-77
2022/08/31 11:01:42;;;;;;;1.52;1.17;;;30.50;96.70;;;;;;5019361;28;20064;-76
2022/08/31 11:04:50;;;;;;;1.83;1.20;;;30.70;96.70;;;;;;5006950;28;20144;-76
2022/08/31 11:07:30;;;;;;;2.10;0.90;;;30.90;96.70;;;;;;5021739;28;20237;-77
2022/08/31 11:10:13;;;;;;;1.95;1.13;;;31.10;96.70;;;;;;5055390;28;20090;-76
2022/08/31 11:12:50;;;;;;;3.40;1.30;;;31.00;96.70;;;;;;5040252;28;20102;-75
2022/08/31 11:15:48;;;;;;;2.22;1.20;;;30.90;96.70;;;;;;5050317;28;20040;-76
2022/08/31 11:18:54;;;;;;;2.05;0.98;;;31.00;96.70;;;;;;5041737;28;20055;-75
2022/08/31 11:21:50;;;;;;;1.63;1.10;;;30.70;96.70;;;;;;5062927;28;20506;-77
2022/08/31 11:25:06;;;;;;;2.47;1.45;;;30.50;96.70;;;;;;5051766;28;20131;-78
2022/08/31 11:27:41;;;;;;;2.65;1.13;;;30.50;96.70;;;;;;5042508;28;20586;-78
2022/08/31 11:30:22;;;;;;;2.15;1.02;;;31.00;96.70;;;;;;5019281;28;20147;-78
2022/08/31 11:32:54;;;;;;;2.80;0.98;;;31.20;96.70;;;;;;5054822;28;20056;-78
2022/08/31 11:36:00;;;;;;;2.83;1.33;;;31.30;96.70;;;;;;5049779;28;20558;-76
2022/08/31 11:38:55;;;;;;;4.15;0.80;;;31.60;96.70;;;;;;5074733;28;20044;-76
2022/08/31 11:41:46;;;;;;;1.85;0.85;;;31.50;96.70;;;;;;4995789;28;20504;-77
2022/08/31 11:45:05;;;;;;;2.70;0.80;;;31.50;96.70;;;;;;5014659;28;20057;-77
2022/08/31 11:47:38;;;;;;;2.53;0.90;;;31.70;96.70;;;;;;4914342;29;20143;-76
2022/08/31 11:50:29;;;;;;;2.83;0.90;;;31.20;96.70;;;;;;5021373;28;20049;-77
2022/08/31 11:53:18;;;;;;;2.20;0.82;;;31.10;96.70;;;;;;5011580;28;20104;-76
2022/08/31 11:55:51;;;;;;;1.33;0.80;;;31.40;96.70;;;;;;5004326;28;20746;-76
2022/08/31 11:58:29;;;;;;;1.67;0.90;;;31.60;96.70;;;;;;5005102;28;20586;-75
2022/08/31 12:01:08;;;;;;;2.13;0.77;;;31.60;96.70;;;;;;5016584;28;20424;-76
2022/08/31 12:03:42;;;;;;;3.50;0.93;;;31.70;96.70;;;;;;5015418;28;20720;-77
2022/08/31 12:06:50;;;;;;;3.53;0.90;;;31.50;96.70;;;;;;5017587;28;20101;-77
2022/08/31 12:09:44;;;;;;;1.55;0.65;;;31.40;96.70;;;;;;5014671;28;20072;-76
2022/08/31 12:12:24;;;;;;;2.22;0.90;;;31.70;96.70;;;;;;4975891;28;20068;-78
2022/08/31 12:14:58;;;;;;;3.60;1.00;;;31.50;96.70;;;;;;5012364;28;20053;-77
2022/08/31 12:17:34;;;;;;;1.67;0.82;;;31.70;96.70;;;;;;5011511;28;20049;-79
2022/08/31 12:20:13;;;;;;;1.60;0.80;;;31.60;96.70;;;;;;5035834;28;20076;-78
2022/08/31 12:23:36;;;;;;;2.78;0.60;;;31.80;96.70;;;;;;5036847;28;20151;-78
2022/08/31 12:26:33;;;;;;;3.25;0.80;;;31.80;96.70;;;;;;5050644;28;20045;-77
2022/08/31 12:29:22;;;;;;;;;;;31.40;96.70;;;;;;5054789;28;20056;-79
2022/08/31 12:32:08;;;;;;;2.08;0.82;;;31.20;96.70;;;;;;5033560;28;19924;-78
2022/08/31 12:34:43;;;;;;;4.13;0.90;;;30.90;96.70;;;;;;5044809;28;20090;-79
2022/08/31 12:37:22;;;;;;;1.38;0.63;;;31.00;96.70;;;;;;5039064;28;20701;-76
2022/08/31 12:40:16;;;;;;;4.22;0.98;;;30.90;96.70;;;;;;5051636;28;20048;-75
2022/08/31 12:43:04;;;;;;;2.22;0.70;;;31.30;96.70;;;;;;5032075;28;20045;-76
2022/08/31 12:45:57;;;;;;;3.10;0.70;;;31.50;96.70;;;;;;5041300;28;20419;-75
2022/08/31 12:48:44;;;;;;;1.33;0.82;;;31.60;96.70;;;;;;5034006;28;20141;-77
2022/08/31 12:51:28;;;;;;;1.13;0.82;;;31.70;96.70;;;;;;5038507;28;20044;-79
2022/08/31 12:54:22;;;;;;;1.60;0.60;;;31.90;96.70;;;;;;5056655;28;20536;-77
2022/08/31 12:56:58;;;;;;;2.42;0.90;;;31.90;96.70;;;;;;5016933;28;20060;-77
2022/08/31 12:59:36;;;;;;;2.08;1.00;;;31.70;96.70;;;;;;5057371;28;20048;-77
2022/08/31 13:02:24;;;;;;;;;;;31.70;96.70;;;;;;5042015;28;20072;-76
2022/08/31 13:04:53;;;;;;;2.28;0.60;;;31.70;96.70;;;;;;5057610;28;20578;-76
2022/08/31 13:07:28;;;;;;;1.70;1.00;;;31.70;96.70;;;;;;5057056;28;20048;-77
2022/08/31 13:10:08;;;;;;;2.72;0.95;;;31.50;96.70;;;;;;5047500;28;20071;-77
2022/08/31 13:12:37;;;;;;;2.72;1.30;;;31.50;96.70;;;;;;5053412;28;20060;-77
2022/08/31 13:15:19;;;;;;;2.97;1.10;;;31.50;96.70;;;;;;5040000;28;20045;-77
2022/08/31 13:17:48;;;;;;;3.33;0.90;;;31.70;96.70;;;;;;5058411;28;20041;-77
2022/08/31 13:20:18;;;;;;;2.97;1.00;;;31.80;96.70;;;;;;5068160;28;20041;-77
2022/08/31 13:22:56;;;;;;;1.33;0.80;;;31.70;96.70;;;;;;5061411;28;20055;-77
2022/08/31 13:25:37;;;;;;;4.80;1.20;;;31.60;96.70;;;;;;5037399;28;20053;-76
2022/08/31 13:28:20;;;;;;;3.53;1.13;;;31.40;96.70;;;;;;5042287;28;20055;-76
2022/08/31 13:30:56;;;;;;;3.88;1.15;;;31.40;96.70;;;;;;5025630;28;20135;-76
2022/08/31 13:33:31;;;;;;;1.88;1.00;;;31.50;96.70;;;;;;5063010;28;20044;-77
2022/08/31 13:36:03;;;;;;;2.00;1.27;;;31.60;96.70;;;;;;5055277;28;20049;-77
2022/08/31 13:38:41;;;;;;;2.70;1.40;;;31.60;96.70;;;;;;5043722;28;20112;-77
2022/08/31 13:41:22;;;;;;;2.85;0.95;;;31.50;96.70;;;;;;5056411;28;20506;-76
2022/08/31 13:44:01;;;;;;;4.78;1.63;;;31.10;96.70;;;;;;5044703;28;20052;-76
2022/08/31 13:46:34;;;;;;;5.57;1.83;;;31.20;96.70;;;;;;5063623;28;20048;-76